createdAt,value
2023-04-10T00:00:57.670Z,59.70
2023-04-10T00:03:26.250Z,59.91
2023-04-10T00:05:55.062Z,59.86
2023-04-10T00:08:24.803Z,60.08
2023-04-10T00:10:54.693Z,59.82
2023-04-10T00:13:23.510Z,60.00
2023-04-10T00:15:53.129Z,60.07
2023-04-10T00:18:21.088Z,59.84
2023-04-10T00:20:49.736Z,59.91
2023-04-10T00:23:18.282Z,59.87
2023-04-10T00:25:47.889Z,59.86
2023-04-10T00:28:17.482Z,60.06
2023-04-10T00:30:46.230Z,59.90
2023-04-10T00:33:15.119Z,59.86
2023-04-10T00:35:43.733Z,59.76
2023-04-10T00:38:12.605Z,59.79
2023-04-10T00:40:42.569Z,59.79
2023-04-10T00:43:11.353Z,59.86
2023-04-10T00:45:39.660Z,59.84
2023-04-10T00:48:08.826Z,59.85
2023-04-10T00:50:38.052Z,59.86
2023-04-10T00:53:07.287Z,59.77
2023-04-10T00:55:35.652Z,59.95
2023-04-10T00:58:03.972Z,59.73
2023-04-10T01:00:32.960Z,59.71
2023-04-10T01:03:02.030Z,59.80
2023-04-10T01:05:35.575Z,59.86
2023-04-10T01:08:18.937Z,59.71
2023-04-10T01:10:56.689Z,59.77
2023-04-10T01:13:30.855Z,59.66
2023-04-10T01:16:03.143Z,59.67
2023-04-10T01:18:34.371Z,59.66
2023-04-10T01:21:03.299Z,59.71
2023-04-10T01:23:50.007Z,59.81
2023-04-10T01:26:27.443Z,59.82
2023-04-10T01:29:04.424Z,59.67
2023-04-10T01:31:37.676Z,59.73
2023-04-10T01:34:10.712Z,59.71
2023-04-10T01:36:44.397Z,59.68
2023-04-10T01:39:12.978Z,59.61
2023-04-10T01:41:41.628Z,59.79
2023-04-10T01:44:14.975Z,59.64
2023-04-10T01:46:44.681Z,59.57
2023-04-10T01:49:14.394Z,59.60
2023-04-10T01:51:43.562Z,59.64
2023-04-10T01:54:13.126Z,59.62
2023-04-10T01:56:42.176Z,59.64
2023-04-10T01:59:12.538Z,59.65
2023-04-10T02:01:41.073Z,59.53
2023-04-10T02:04:10.150Z,59.53
2023-04-10T02:06:47.414Z,59.45
2023-04-10T02:09:17.338Z,59.61
2023-04-10T02:11:49.577Z,59.55
2023-04-10T02:14:20.710Z,59.43
2023-04-10T02:16:53.056Z,59.45
2023-04-10T02:19:24.360Z,59.35
2023-04-10T02:21:54.146Z,59.36
2023-04-10T02:24:25.178Z,59.46
2023-04-10T02:26:53.970Z,59.37
2023-04-10T02:29:22.525Z,59.46
2023-04-10T02:31:50.940Z,59.33
2023-04-10T02:34:20.428Z,59.35
2023-04-10T02:36:48.719Z,59.25
2023-04-10T02:39:16.824Z,59.16
2023-04-10T02:41:51.701Z,59.29
2023-04-10T02:44:20.637Z,59.30
2023-04-10T02:46:49.585Z,59.17
2023-04-10T02:49:19.075Z,59.31
2023-04-10T02:51:47.765Z,59.18
2023-04-10T02:54:16.193Z,59.18
2023-04-10T02:56:45.081Z,59.24
2023-04-10T02:59:13.873Z,59.20
2023-04-10T03:01:44.116Z,59.27
2023-04-10T03:04:13.162Z,59.21
2023-04-10T03:06:42.899Z,59.25
2023-04-10T03:09:11.337Z,59.23
2023-04-10T03:11:39.885Z,59.35
2023-04-10T03:14:09.958Z,59.28
2023-04-10T03:16:40.132Z,59.25
2023-04-10T03:19:08.196Z,59.21
2023-04-10T03:21:36.274Z,59.23
2023-04-10T03:24:06.462Z,59.19
2023-04-10T03:26:35.010Z,59.18
2023-04-10T03:29:04.013Z,59.17
2023-04-10T03:31:32.617Z,59.10
2023-04-10T03:34:01.363Z,59.13
2023-04-10T03:36:29.918Z,59.15
2023-04-10T03:38:58.055Z,59.14
2023-04-10T03:41:26.562Z,59.14
2023-04-10T03:43:55.474Z,59.14
2023-04-10T03:46:24.615Z,59.05
2023-04-10T03:48:54.245Z,59.23
2023-04-10T03:51:24.989Z,59.17
2023-04-10T03:53:54.522Z,59.15
2023-04-10T03:56:24.549Z,59.12
2023-04-10T03:58:52.664Z,59.12
2023-04-10T04:01:22.919Z,59.08
2023-04-10T04:04:03.904Z,59.08
2023-04-10T04:06:58.913Z,59.13
2023-04-10T04:09:47.603Z,59.07
2023-04-10T04:12:35.784Z,59.13
2023-04-10T04:15:10.271Z,59.03
2023-04-10T04:17:55.921Z,59.08
2023-04-10T04:20:53.464Z,59.07
2023-04-10T04:23:37.172Z,59.05
2023-04-10T04:26:26.477Z,59.08
2023-04-10T04:29:18.417Z,59.05
2023-04-10T04:32:12.605Z,59.08
2023-04-10T04:34:56.523Z,59.16
2023-04-10T04:37:56.975Z,59.09
2023-04-10T04:41:01.618Z,59.25
2023-04-10T04:43:47.562Z,59.36
2023-04-10T04:46:44.674Z,59.40
2023-04-10T04:49:12.958Z,59.50
2023-04-10T04:52:00.048Z,59.64
2023-04-10T04:54:38.728Z,59.68
2023-04-10T04:57:16.577Z,59.71
2023-04-10T05:00:06.335Z,59.88
2023-04-10T05:02:53.594Z,59.94
2023-04-10T05:05:34.309Z,60.07
2023-04-10T05:08:16.930Z,60.08
2023-04-10T05:10:59.368Z,60.10
2023-04-10T05:14:04.080Z,60.20
2023-04-10T05:17:00.008Z,60.29
2023-04-10T05:19:46.881Z,60.26
2023-04-10T05:22:25.477Z,60.39
2023-04-10T05:25:09.162Z,60.40
2023-04-10T05:27:48.524Z,60.50
2023-04-10T05:30:50.884Z,60.62
2023-04-10T05:33:34.316Z,60.57
2023-04-10T05:36:11.291Z,60.60
2023-04-10T05:39:03.599Z,60.64
2023-04-10T05:41:56.879Z,60.72
2023-04-10T05:44:31.135Z,60.65
2023-04-10T05:47:26.361Z,60.66
2023-04-10T05:50:15.426Z,60.78
2023-04-10T05:53:14.322Z,60.71
2023-04-10T05:56:05.975Z,60.81
2023-04-10T05:58:44.439Z,60.86
2023-04-10T06:01:32.786Z,60.83
2023-04-10T06:04:04.041Z,60.78
2023-04-10T06:06:33.679Z,60.89
2023-04-10T06:09:09.947Z,61.03
2023-04-10T06:11:38.651Z,61.04
2023-04-10T06:14:07.975Z,61.11
2023-04-10T06:16:40.123Z,61.24
2023-04-10T06:19:09.958Z,61.27
2023-04-10T06:21:38.870Z,61.36
2023-04-10T06:24:09.211Z,61.33
2023-04-10T06:26:38.874Z,61.37
2023-04-10T06:29:07.250Z,61.28
2023-04-10T06:31:35.646Z,61.27
2023-04-10T06:34:04.918Z,61.23
2023-04-10T06:36:33.754Z,61.22
2023-04-10T06:39:04.844Z,61.25
2023-04-10T06:41:33.592Z,61.11
2023-04-10T06:44:16.249Z,61.20
2023-04-10T06:46:45.118Z,61.03
2023-04-10T06:49:13.636Z,61.04
2023-04-10T06:51:45.876Z,60.99
2023-04-10T06:54:14.946Z,61.08
2023-04-10T06:56:45.168Z,60.87
2023-04-10T06:59:13.354Z,60.86
2023-04-10T07:01:41.305Z,60.66
2023-04-10T07:04:10.695Z,60.84
2023-04-10T07:06:39.549Z,60.66
2023-04-10T07:09:08.631Z,60.60
2023-04-10T07:11:37.046Z,60.72
2023-04-10T07:14:05.948Z,60.94
2023-04-10T07:16:35.731Z,60.75
2023-04-10T07:19:03.643Z,60.74
2023-04-10T07:21:33.750Z,60.87
2023-04-10T07:24:02.142Z,60.67
2023-04-10T07:26:31.077Z,60.75
2023-04-10T07:28:59.143Z,60.80
2023-04-10T07:31:27.610Z,60.69
2023-04-10T07:33:55.877Z,60.70
2023-04-10T07:36:27.354Z,60.51
2023-04-10T07:38:56.653Z,60.71
2023-04-10T07:41:25.807Z,60.61
2023-04-10T07:43:53.923Z,60.66
2023-04-10T07:46:27.624Z,60.62
2023-04-10T07:48:56.069Z,60.71
2023-04-10T07:51:24.389Z,60.68
2023-04-10T07:53:52.442Z,60.58
2023-04-10T07:56:21.636Z,60.47
2023-04-10T07:58:51.915Z,60.62
2023-04-10T08:01:20.380Z,60.41
2023-04-10T08:03:48.938Z,60.47
2023-04-10T08:06:18.562Z,60.50
2023-04-10T08:08:46.820Z,60.34
2023-04-10T08:11:25.874Z,60.32
2023-04-10T08:13:55.277Z,60.38
2023-04-10T08:16:27.850Z,60.37
2023-04-10T08:18:58.294Z,60.28
2023-04-10T08:21:27.460Z,60.37
2023-04-10T08:23:59.660Z,60.14
2023-04-10T08:26:28.361Z,60.22
2023-04-10T08:28:58.524Z,60.05
2023-04-10T08:31:28.413Z,60.00
2023-04-10T08:33:57.189Z,59.98
2023-04-10T08:36:27.347Z,60.04
2023-04-10T08:38:55.961Z,59.95
2023-04-10T08:41:23.987Z,59.70
2023-04-10T08:43:53.858Z,59.82
2023-04-10T08:46:24.878Z,59.76
2023-04-10T08:48:59.933Z,59.66
2023-04-10T08:51:43.652Z,59.38
2023-04-10T08:54:19.619Z,59.52
2023-04-10T08:56:51.535Z,59.57
2023-04-10T08:59:21.852Z,59.57
2023-04-10T09:01:50.129Z,59.44
2023-04-10T09:04:18.535Z,59.40
2023-04-10T09:06:48.190Z,59.35
2023-04-10T09:09:16.911Z,58.94
2023-04-10T09:12:00.996Z,59.11
2023-04-10T09:14:32.100Z,58.99
2023-04-10T09:17:11.471Z,59.06
2023-04-10T09:19:40.832Z,58.94
2023-04-10T09:22:09.662Z,58.80
2023-04-10T09:24:39.271Z,58.57
2023-04-10T09:27:07.889Z,58.57
2023-04-10T09:29:44.147Z,58.50
2023-04-10T09:32:12.916Z,58.43
2023-04-10T09:34:59.289Z,58.45
2023-04-10T09:37:34.857Z,58.31
2023-04-10T09:40:04.727Z,58.29
2023-04-10T09:42:33.990Z,58.26
2023-04-10T09:45:04.092Z,58.10
2023-04-10T09:47:33.281Z,58.04
2023-04-10T09:50:04.005Z,58.05
2023-04-10T09:52:34.508Z,57.96
2023-04-10T09:55:04.446Z,57.91
2023-04-10T09:57:33.754Z,57.85
2023-04-10T10:00:07.022Z,57.90
2023-04-10T10:02:37.534Z,57.75
2023-04-10T10:05:06.807Z,57.71
2023-04-10T10:07:36.127Z,57.61
2023-04-10T10:10:07.651Z,57.50
2023-04-10T10:12:41.167Z,57.27
2023-04-10T10:15:17.519Z,57.40
2023-04-10T10:17:50.391Z,57.33
2023-04-10T10:20:22.085Z,57.36
2023-04-10T10:22:51.760Z,57.16
2023-04-10T10:25:23.016Z,57.03
2023-04-10T10:28:01.135Z,57.03
2023-04-10T10:30:34.425Z,56.92
2023-04-10T10:33:07.478Z,57.01
2023-04-10T10:35:36.182Z,56.88
2023-04-10T10:38:05.883Z,56.90
2023-04-10T10:40:33.988Z,56.89
2023-04-10T10:43:06.963Z,56.78
2023-04-10T10:45:58.273Z,56.80
2023-04-10T10:48:26.410Z,56.77
2023-04-10T10:50:57.606Z,56.76
2023-04-10T10:53:43.918Z,56.71
2023-04-10T10:56:24.201Z,56.63
2023-04-10T10:59:02.198Z,56.62
2023-04-10T11:01:31.576Z,56.60
2023-04-10T11:04:07.249Z,56.53
2023-04-10T11:06:48.981Z,56.45
2023-04-10T11:09:35.798Z,56.51
2023-04-10T11:12:05.652Z,56.35
2023-04-10T11:14:35.864Z,56.24
2023-04-10T11:17:03.958Z,56.00
2023-04-10T11:20:09.477Z,55.33
2023-04-10T11:22:57.406Z,55.67
2023-04-10T11:25:45.630Z,55.44
2023-04-10T11:28:35.897Z,55.35
2023-04-10T11:31:27.473Z,55.38
2023-04-10T11:34:02.902Z,55.43
2023-04-10T11:36:32.333Z,55.36
2023-04-10T11:39:06.060Z,55.37
2023-04-10T11:41:39.374Z,55.26
2023-04-10T11:44:09.004Z,55.34
2023-04-10T11:46:38.698Z,55.32
2023-04-10T11:49:09.793Z,55.26
2023-04-10T11:51:38.442Z,55.34
2023-04-10T11:54:27.992Z,54.92
2023-04-10T11:57:06.335Z,54.55
2023-04-10T11:59:35.603Z,54.13
2023-04-10T12:02:11.864Z,53.40
2023-04-10T12:04:41.221Z,52.99
2023-04-10T12:07:09.739Z,52.57
2023-04-10T12:09:37.771Z,51.81
2023-04-10T12:12:07.303Z,51.59
2023-04-10T12:14:37.197Z,52.03
2023-04-10T12:17:06.808Z,52.18
2023-04-10T12:19:35.420Z,52.28
2023-04-10T12:22:03.617Z,52.64
2023-04-10T12:24:46.449Z,52.37
2023-04-10T12:27:28.172Z,52.47
2023-04-10T12:29:58.679Z,52.38
2023-04-10T12:32:29.941Z,52.35
2023-04-10T12:34:59.418Z,52.08
2023-04-10T12:37:46.325Z,51.74
2023-04-10T12:40:14.822Z,51.44
2023-04-10T12:42:43.360Z,51.23
2023-04-10T12:45:14.834Z,50.56
2023-04-10T12:47:45.809Z,50.79
2023-04-10T12:50:15.476Z,50.80
2023-04-10T12:52:44.520Z,50.76
2023-04-10T12:55:17.009Z,50.88
2023-04-10T12:57:46.275Z,50.54
2023-04-10T13:00:15.877Z,50.45
2023-04-10T13:02:45.065Z,50.24
2023-04-10T13:05:13.313Z,50.20
2023-04-10T13:07:42.260Z,50.43
2023-04-10T13:10:10.427Z,50.52
2023-04-10T13:12:39.300Z,50.40
2023-04-10T13:15:08.246Z,50.32
2023-04-10T13:17:36.501Z,50.02
2023-04-10T13:20:04.792Z,49.90
2023-04-10T13:22:32.789Z,49.84
2023-04-10T13:25:01.126Z,49.68
2023-04-10T13:27:29.105Z,49.31
2023-04-10T13:29:57.116Z,49.44
2023-04-10T13:32:25.380Z,49.46
2023-04-10T13:34:54.834Z,49.16
2023-04-10T13:37:22.858Z,49.17
2023-04-10T13:39:50.938Z,48.79
2023-04-10T13:42:18.798Z,48.66
2023-04-10T13:44:46.809Z,48.87
2023-04-10T13:47:14.914Z,48.95
2023-04-10T13:49:42.964Z,48.59
2023-04-10T13:52:11.864Z,48.41
2023-04-10T13:54:39.745Z,48.45
2023-04-10T13:57:07.862Z,48.46
2023-04-10T13:59:35.918Z,48.57
2023-04-10T14:02:04.470Z,48.16
2023-04-10T14:04:32.582Z,48.21
2023-04-10T14:07:02.366Z,48.23
2023-04-10T14:09:31.204Z,48.26
2023-04-10T14:11:59.625Z,48.00
2023-04-10T14:14:27.810Z,47.64
2023-04-10T14:16:57.919Z,47.50
2023-04-10T14:19:26.068Z,47.63
2023-04-10T14:21:54.213Z,47.79
2023-04-10T14:24:22.289Z,47.79
2023-04-10T14:26:52.268Z,47.76
2023-04-10T14:29:25.491Z,47.28
2023-04-10T14:32:01.452Z,47.32
2023-04-10T14:34:29.438Z,47.23
2023-04-10T14:36:58.799Z,47.25
2023-04-10T14:39:26.945Z,47.41
2023-04-10T14:41:54.874Z,47.38
2023-04-10T14:44:22.840Z,47.49
2023-04-10T14:46:51.044Z,47.40
2023-04-10T14:49:19.229Z,47.29
2023-04-10T14:51:49.673Z,46.98
2023-04-10T14:54:21.725Z,47.12
2023-04-10T14:56:50.086Z,47.03
2023-04-10T14:59:18.467Z,47.06
2023-04-10T15:01:47.667Z,47.14
2023-04-10T15:04:16.840Z,47.05
2023-04-10T15:06:45.276Z,46.86
2023-04-10T15:09:14.633Z,46.94
2023-04-10T15:11:42.501Z,46.90
2023-04-10T15:14:12.262Z,46.86
2023-04-10T15:16:41.073Z,46.91
2023-04-10T15:19:09.244Z,46.89
2023-04-10T15:21:37.277Z,46.99
2023-04-10T15:24:06.995Z,47.00
2023-04-10T15:26:35.218Z,46.87
2023-04-10T15:29:03.491Z,46.63
2023-04-10T15:31:31.506Z,46.80
2023-04-10T15:34:00.059Z,46.73
2023-04-10T15:36:29.352Z,46.72
2023-04-10T15:38:59.980Z,46.71
2023-04-10T15:41:30.302Z,46.74
2023-04-10T15:43:58.477Z,46.77
2023-04-10T15:46:27.159Z,46.72
2023-04-10T15:48:56.283Z,46.86
2023-04-10T15:51:24.370Z,46.84
2023-04-10T15:53:54.452Z,46.81
2023-04-10T15:56:22.553Z,46.67
2023-04-10T15:58:50.471Z,46.68
2023-04-10T16:01:19.120Z,46.74
2023-04-10T16:03:49.586Z,46.82
2023-04-10T16:06:18.009Z,46.85
2023-04-10T16:08:46.147Z,46.93
2023-04-10T16:11:14.874Z,47.16
2023-04-10T16:13:44.847Z,47.31
2023-04-10T16:16:16.683Z,47.36
2023-04-10T16:18:45.241Z,47.53
2023-04-10T16:21:16.741Z,47.63
2023-04-10T16:23:44.875Z,47.49
2023-04-10T16:26:13.652Z,47.64
2023-04-10T16:28:41.648Z,47.68
2023-04-10T16:31:10.076Z,47.71
2023-04-10T16:33:38.014Z,47.74
2023-04-10T16:36:06.540Z,47.83
2023-04-10T16:38:35.531Z,47.97
2023-04-10T16:41:04.855Z,47.95
2023-04-10T16:43:36.816Z,48.02
2023-04-10T16:46:05.190Z,48.11
2023-04-10T16:48:36.248Z,48.17
2023-04-10T16:51:06.949Z,48.14
2023-04-10T16:53:36.329Z,48.13
2023-04-10T16:56:05.494Z,48.09
2023-04-10T16:58:34.184Z,48.17
2023-04-10T17:01:19.293Z,48.18
2023-04-10T17:03:49.089Z,48.17
2023-04-10T17:06:18.063Z,48.18
2023-04-10T17:08:46.509Z,48.21
2023-04-10T17:11:14.904Z,48.17
2023-04-10T17:13:43.289Z,48.19
2023-04-10T17:16:11.240Z,48.23
2023-04-10T17:18:40.235Z,48.13
2023-04-10T17:21:13.251Z,48.06
2023-04-10T17:23:42.081Z,48.24
2023-04-10T17:26:14.092Z,48.19
2023-04-10T17:28:45.278Z,48.29
2023-04-10T17:31:14.020Z,48.35
2023-04-10T17:33:42.606Z,48.40
2023-04-10T17:36:12.503Z,48.45
2023-04-10T17:38:42.695Z,48.41
2023-04-10T17:41:14.058Z,48.47
2023-04-10T17:43:43.306Z,48.45
2023-04-10T17:46:15.627Z,48.28
2023-04-10T17:48:44.604Z,48.33
2023-04-10T17:51:12.632Z,48.40
2023-04-10T17:53:41.866Z,48.50
2023-04-10T17:56:18.191Z,48.47
2023-04-10T17:58:47.049Z,48.47
2023-04-10T18:01:22.503Z,48.56
2023-04-10T18:03:50.593Z,48.54
2023-04-10T18:06:18.883Z,48.60
2023-04-10T18:08:47.428Z,48.63
2023-04-10T18:11:15.494Z,48.58
2023-04-10T18:13:44.718Z,48.63
2023-04-10T18:16:13.296Z,48.86
2023-04-10T18:18:44.418Z,48.88
2023-04-10T18:21:13.977Z,48.95
2023-04-10T18:23:42.518Z,48.94
2023-04-10T18:26:11.157Z,48.99
2023-04-10T18:28:39.601Z,48.98
2023-04-10T18:31:08.553Z,49.09
2023-04-10T18:33:38.541Z,49.11
2023-04-10T18:36:07.038Z,49.11
2023-04-10T18:38:35.995Z,49.17
2023-04-10T18:41:05.101Z,49.24
2023-04-10T18:43:33.351Z,49.36
2023-04-10T18:46:02.129Z,49.31
2023-04-10T18:48:30.382Z,49.37
2023-04-10T18:51:00.006Z,49.48
2023-04-10T18:53:27.931Z,49.57
2023-04-10T18:55:56.421Z,49.73
2023-04-10T18:58:24.846Z,49.77
2023-04-10T19:00:53.425Z,49.77
2023-04-10T19:03:22.350Z,49.92
2023-04-10T19:05:51.013Z,49.96
2023-04-10T19:08:19.164Z,50.02
2023-04-10T19:10:48.146Z,50.00
2023-04-10T19:13:16.765Z,50.08
2023-04-10T19:15:47.357Z,50.14
2023-04-10T19:18:16.603Z,50.20
2023-04-10T19:20:50.915Z,50.27
2023-04-10T19:23:21.301Z,50.30
2023-04-10T19:25:54.188Z,50.38
2023-04-10T19:28:23.387Z,50.39
2023-04-10T19:30:52.871Z,50.41
2023-04-10T19:33:22.058Z,50.51
2023-04-10T19:35:49.982Z,50.47
2023-04-10T19:38:18.087Z,50.58
2023-04-10T19:40:47.426Z,50.64
2023-04-10T19:43:16.644Z,50.66
2023-04-10T19:45:44.980Z,50.69
2023-04-10T19:48:16.417Z,50.68
2023-04-10T19:50:45.967Z,50.78
2023-04-10T19:53:16.221Z,50.87
2023-04-10T19:55:45.857Z,50.87
2023-04-10T19:58:35.547Z,50.98
2023-04-10T20:01:04.598Z,51.19
2023-04-10T20:03:34.455Z,51.21
2023-04-10T20:06:03.842Z,51.30
2023-04-10T20:08:32.386Z,51.24
2023-04-10T20:11:02.532Z,51.27
2023-04-10T20:13:31.808Z,51.24
2023-04-10T20:16:01.283Z,51.32
2023-04-10T20:18:31.768Z,51.39
2023-04-10T20:20:59.973Z,51.36
2023-04-10T20:23:28.022Z,51.37
2023-04-10T20:25:57.930Z,51.45
2023-04-10T20:28:26.221Z,51.42
2023-04-10T20:30:54.627Z,51.47
2023-04-10T20:33:23.066Z,51.49
2023-04-10T20:35:53.361Z,51.49
2023-04-10T20:38:22.479Z,51.66
2023-04-10T20:40:51.483Z,51.55
2023-04-10T20:43:21.208Z,51.54
2023-04-10T20:45:49.772Z,51.58
2023-04-10T20:48:18.691Z,51.61
2023-04-10T20:50:47.597Z,51.69
2023-04-10T20:53:16.857Z,51.76
2023-04-10T20:55:45.225Z,51.76
2023-04-10T20:58:13.524Z,51.85
2023-04-10T21:00:42.305Z,51.78
2023-04-10T21:03:11.415Z,51.97
2023-04-10T21:05:43.936Z,51.99
2023-04-10T21:08:20.842Z,52.10
2023-04-10T21:10:49.977Z,52.05
2023-04-10T21:13:18.860Z,52.09
2023-04-10T21:15:49.740Z,52.19
2023-04-10T21:18:18.685Z,52.22
2023-04-10T21:20:46.729Z,52.22
2023-04-10T21:23:16.327Z,52.22
2023-04-10T21:25:49.684Z,52.36
2023-04-10T21:28:18.052Z,52.25
2023-04-10T21:30:46.277Z,52.31
2023-04-10T21:33:15.270Z,52.37
2023-04-10T21:35:44.910Z,52.37
2023-04-10T21:38:13.706Z,52.42
2023-04-10T21:40:42.876Z,52.41
2023-04-10T21:43:11.988Z,52.41
2023-04-10T21:45:40.106Z,52.56
2023-04-10T21:48:08.809Z,52.51
2023-04-10T21:50:37.404Z,52.55
2023-04-10T21:53:06.052Z,52.56
2023-04-10T21:55:36.116Z,52.52
2023-04-10T21:58:05.083Z,52.61
2023-04-10T22:00:33.980Z,52.60
2023-04-10T22:03:02.154Z,52.59
2023-04-10T22:05:31.853Z,52.68
2023-04-10T22:07:59.918Z,52.59
2023-04-10T22:10:27.912Z,52.68
2023-04-10T22:12:57.668Z,52.68
2023-04-10T22:15:26.571Z,52.75
2023-04-10T22:17:55.374Z,52.76
2023-04-10T22:20:24.829Z,52.59
2023-04-10T22:22:52.868Z,52.68
2023-04-10T22:25:21.462Z,52.69
2023-04-10T22:27:49.652Z,52.69
2023-04-10T22:30:18.682Z,52.79
2023-04-10T22:32:48.158Z,52.65
2023-04-10T22:35:16.434Z,52.82
2023-04-10T22:37:45.225Z,52.83
2023-04-10T22:40:13.601Z,52.72
2023-04-10T22:42:43.778Z,52.77
2023-04-10T22:45:12.770Z,52.81
2023-04-10T22:47:40.997Z,52.69
2023-04-10T22:50:10.434Z,52.84
2023-04-10T22:52:39.670Z,52.84
2023-04-10T22:55:09.972Z,52.74
2023-04-10T22:57:38.885Z,52.75
2023-04-10T23:00:07.543Z,52.86
2023-04-10T23:02:36.131Z,52.95
2023-04-10T23:05:05.802Z,52.98
2023-04-10T23:07:35.255Z,53.01
2023-04-10T23:10:04.648Z,53.09
2023-04-10T23:12:34.551Z,53.11
2023-04-10T23:15:03.144Z,53.24
2023-04-10T23:17:31.312Z,53.18
2023-04-10T23:20:00.753Z,53.31
2023-04-10T23:22:29.717Z,53.37
2023-04-10T23:24:58.701Z,53.34
2023-04-10T23:27:27.894Z,53.38
2023-04-10T23:29:56.448Z,53.44
2023-04-10T23:32:24.452Z,53.56
2023-04-10T23:34:53.522Z,53.48
2023-04-10T23:37:22.042Z,53.49
2023-04-10T23:39:50.216Z,53.58
2023-04-10T23:42:19.282Z,53.72
2023-04-10T23:44:48.322Z,53.69
2023-04-10T23:47:18.596Z,53.83
2023-04-10T23:49:47.428Z,53.78
2023-04-10T23:52:16.954Z,53.88
2023-04-10T23:54:44.982Z,53.89
2023-04-10T23:57:13.208Z,53.94
2023-04-10T23:59:42.688Z,53.98
